WEATHER DATA

YESTERDAY
Time Temp. Dewp. Hum. Wind dir Wind speed Wind gust Bar. 1h Prec. 24h Prec.
00:05 1 0.4 96 313 1.7 3.6 1023.9 0.1010 0.0000
00:15 1 0.4 96 304 1.4 3.6 1023.9 0.1010 0.0000
00:25 1 0.4 96 318 1.9 4.7 1023.9 0.1010 0.0000
00:35 0.9 0.3 96 313 1.4 3.9 1023.8 0.1010 0.0000
00:45 0.9 0.3 96 305 1.4 3.3 1023.5 0.2020 0.1000
00:56 0.9 0.3 96 298 1.7 4.4 1023.5 0.1010 0.1000
01:06 0.9 0.3 96 300 1.1 3.1 1023.5 0.1010 0.1000
01:15 0.9 0.3 96 311 1.7 3.6 1023.4 0.1010 0.1000
01:26 0.9 0.3 96 310 1.7 4.4 1023.4 0.1010 0.1000
01:36 0.9 0.3 96 316 1.7 3.9 1023.3 0.1010 0.1000
01:46 0.9 0.3 96 313 1.4 4.2 1023.3 0.0000 0.1000
01:56 0.9 0.3 96 318 1.7 3.9 1023.3 0.0000 0.1000
02:06 0.9 0.3 96 317 1.7 3.3 1023.3 0.0000 0.1000
02:16 0.9 0.3 96 313 1.7 3.9 1023.2 0.0000 0.1000
02:26 0.9 0.3 96 315 1.7 5 1023.1 0.0000 0.1000
02:36 0.9 0.3 96 304 1.7 3.6 1023.1 0.0000 0.1000
02:47 0.9 0.3 96 315 1.9 5 1023 0.0000 0.1000
02:56 0.9 0.3 96 313 1.1 3.9 1023 0.0000 0.1000
03:06 0.9 0.3 96 309 1.1 3.3 1022.9 0.0000 0.1000
03:17 0.9 0.3 96 296 1.4 2.8 1022.9 0.0000 0.1000
03:27 0.8 0.2 96 284 1.4 3.9 1022.9 0.0000 0.1000
03:37 0.8 0.2 96 309 1.4 3.1 1022.9 0.0000 0.1000
03:46 0.8 0.4 97 305 1.1 3.3 1022.9 0.1010 0.2000
03:57 0.8 0.4 97 303 1.4 3.6 1022.8 0.1010 0.2000
04:07 0.8 0.4 97 308 1.4 3.9 1022.7 0.1010 0.2000
04:17 0.8 0.4 97 292 1.1 3.1 1022.7 0.1010 0.2000
04:27 0.8 0.4 97 284 1.4 3.3 1022.7 0.1010 0.2000
04:38 0.8 0.4 97 284 1.1 2.8 1022.6 0.0000 0.2000
04:47 0.8 0.4 97 309 1.7 3.9 1022.7 0.0000 0.2000
04:57 0.9 0.5 97 281 1.7 4.7 1022.6 0.0000 0.2000
05:08 0.9 0.5 97 281 1.7 3.3 1022.6 0.0000 0.2000
05:18 0.9 0.5 97 283 1.4 3.3 1022.6 0.0000 0.2000
05:28 0.9 0.5 97 305 1.1 3.3 1022.7 0.0000 0.2000
05:38 0.9 0.5 97 296 1.1 2.8 1022.7 0.0000 0.2000
05:48 0.9 0.5 97 282 1.4 3.6 1022.7 0.0000 0.2000
05:58 0.9 0.5 97 295 1.4 3.6 1022.7 0.0000 0.2000
06:08 0.9 0.3 96 292 1.1 3.1 1022.6 0.0000 0.2000
06:19 0.9 0.3 96 292 1.4 3.1 1022.5 0.1010 0.3000
06:29 0.9 0.3 96 293 1.4 4.7 1022.5 0.1010 0.3000
06:38 0.9 0.5 97 291 1.7 3.1 1022.4 0.2020 0.4000
06:48 0.9 0.3 96 294 1.4 3.9 1022.3 0.2020 0.4000
06:59 0.9 0.3 96 283 1.7 3.6 1022.3 0.2020 0.4000
07:09 0.9 0.3 96 294 1.1 3.3 1022.4 0.1010 0.4000
07:19 0.8 0.2 96 289 1.1 2.5 1022.3 0.1010 0.4000
07:30 0.8 0.2 96 297 1.7 4.2 1022.4 0.0000 0.4000
07:39 0.8 0.2 96 291 1.4 3.3 1022.4 0.0000 0.4000
07:49 0.8 0.2 96 296 1.9 4.4 1022.4 0.1010 0.5000
07:59 0.9 0.3 96 301 1.7 3.9 1022.4 0.1010 0.5000
08:10 0.9 0.3 96 284 1.1 3.9 1022.3 0.1010 0.5000
08:20 0.9 0.5 97 298 1.4 4.2 1022.2 0.1010 0.5000
08:29 0.9 0.5 97 291 1.7 4.2 1022.3 0.2020 0.6000
08:40 1 0.6 97 302 1.1 2.8 1022.2 0.1010 0.6000
08:50 1 0.6 97 292 1.7 4.2 1022.2 0.1010 0.6000
09:00 1.1 0.7 97 290 1.7 3.6 1022.3 0.1010 0.6000
09:10 1.1 0.5 96 302 1.1 3.3 1022.3 0.1010 0.6000
09:20 1.2 0.6 96 302 1.7 4.7 1022.2 0.1010 0.6000
09:30 1.2 0.6 96 296 1.4 4.2 1022.3 0.0000 0.6000
09:40 1.2 0.6 96 301 1.4 3.1 1022.3 0.0000 0.6000
09:50 1.2 0.6 96 294 1.4 3.3 1022.3 0.0000 0.6000
10:01 1.2 0.6 96 298 1.9 3.3 1022.3 0.0000 0.6000
10:10 1.3 0.7 96 292 1.1 3.6 1022.3 0.0000 0.6000
10:20 1.3 0.7 96 294 1.4 3.1 1022.4 0.0000 0.6000
10:31 1.3 0.7 96 300 1.4 3.3 1022.4 0.0000 0.6000
10:40 1.3 0.7 96 305 1.4 2.8 1022.4 0.0000 0.6000
10:51 1.4 0.8 96 308 1.9 4.2 1022.3 0.0000 0.6000
11:01 1.4 1 97 319 1.4 3.6 1022.3 0.0000 0.6000
11:11 1.5 1.1 97 303 1.1 1.9 1022.3 0.0000 0.6000
11:21 1.6 1 96 308 1.9 5.3 1022.3 0.0000 0.6000
11:31 1.6 1 96 315 1.4 3.9 1022.2 0.0000 0.6000
11:42 1.7 1.1 96 318 1.4 3.1 1022.1 0.0000 0.6000
11:51 1.7 1.1 96 308 1.4 2.8 1022 0.0000 0.6000
12:01 1.8 1.2 96 296 1.4 3.9 1021.9 0.0000 0.6000
12:11 1.8 1.1 95 297 1.7 3.6 1021.8 0.0000 0.6000
12:22 1.8 1.1 95 289 1.1 2.2 1021.8 0.0000 0.6000
12:32 1.8 1.1 95 280 1.1 3.3 1021.7 0.0000 0.6000
12:42 1.8 1.1 95 298 1.1 2.5 1021.7 0.0000 0.6000
12:52 1.8 1.1 95 289 1.1 2.8 1021.5 0.0000 0.6000
13:02 1.8 1.1 95 287 1.1 2.5 1021.5 0.0000 0.6000
13:12 1.8 1.1 95 285 1.1 4.4 1021.3 0.0000 0.6000
13:22 1.8 1.1 95 289 1.1 2.5 1021.3 0.0000 0.6000
13:33 1.8 1.1 95 289 1.1 2.2 1021.3 0.0000 0.6000
13:42 1.8 1.1 95 291 1.1 3.3 1021.3 0.0000 0.6000
13:52 1.8 1.2 96 288 1.7 3.6 1021.2 0.0000 0.6000
14:03 1.8 1.2 96 279 1.1 2.8 1021 0.0000 0.6000
14:13 1.8 1.2 96 298 1.4 3.6 1020.9 0.0000 0.6000
14:23 1.8 1.2 96 296 1.4 4.2 1020.9 0.0000 0.6000
14:32 1.7 1.1 96 286 1.4 3.1 1021 0.0000 0.6000
14:43 1.8 1.2 96 309 1.7 3.6 1021 0.0000 0.6000
14:53 1.7 1.1 96 309 1.7 3.9 1021 0.0000 0.6000
15:03 1.7 1.1 96 311 1.7 4.4 1021 0.1010 0.7000
15:13 1.7 1.1 96 298 1.4 3.1 1021 0.1010 0.7000
15:23 1.7 1.1 96 290 1.4 3.6 1021 0.1010 0.7000
15:33 1.7 1.1 96 283 1.4 3.3 1020.9 0.2020 0.8000
15:47 1.6 1 96 270 1.4 3.1 1020.9 0.3030 0.9000
15:56 1.6 1 96 270 1.4 4.4 1021 0.3030 0.9000
16:06 1.6 1 96 270 1.1 2.5 1021 0.3030 1.0000
16:17 1.5 0.9 96 276 1.4 2.2 1021 0.4040 1.1000
16:27 1.5 0.9 96 283 1.4 3.6 1021.1 0.5050 1.2000
16:37 1.5 0.9 96 270 1.1 2.5 1021.1 0.4040 1.2000
16:47 1.4 0.8 96 275 1.7 3.6 1021.2 0.4040 1.3000
16:57 1.3 0.7 96 278 1.4 2.8 1021.2 0.5050 1.4000
17:07 1.3 0.7 96 280 1.1 4.2 1021.2 0.5050 1.5000
17:17 1.3 0.7 96 299 1.4 3.3 1021.3 0.5050 1.6000
17:28 1.3 0.7 96 305 1.1 2.2 1021.4 0.4040 1.6000
17:37 1.3 0.7 96 270 1.1 3.6 1021.2 0.5050 1.7000
17:47 1.3 0.7 96 270 0.8 2.5 1021.2 0.3030 1.7000
17:58 1.4 0.8 96 286 1.4 4.2 1021 0.2020 1.7000
18:08 1.4 0.8 96 295 1.4 2.5 1021 0.1010 1.7000
18:18 1.4 0.8 96 282 1.4 3.1 1020.8 0.1010 1.7000
18:27 1.3 0.7 96 287 1.1 2.5 1020.8 0.0000 1.7000
18:38 1.3 0.7 96 286 1.4 3.3 1020.9 0.0000 1.7000
18:48 1.3 0.7 96 296 1.1 2.8 1020.9 0.0000 1.7000
18:58 1.3 0.7 96 281 1.4 3.3 1020.8 0.0000 1.7000
19:08 1.3 0.7 96 308 1.1 3.1 1020.8 0.0000 1.7000
19:18 1.3 0.7 96 287 1.1 3.1 1020.9 0.0000 1.7000
19:28 1.3 0.7 96 315 1.7 3.3 1020.9 0.0000 1.7000
19:38 1.3 0.7 96 315 1.4 3.6 1020.9 0.0000 1.7000
19:49 1.2 0.6 96 321 1.7 3.9 1020.9 0.0000 1.7000
19:59 1.2 0.6 96 295 0.8 2.8 1020.8 0.0000 1.7000
20:09 1.2 0.6 96 305 1.1 3.3 1020.8 0.0000 1.7000
20:19 1.2 0.6 96 278 1.1 2.5 1020.6 0.0000 1.7000
20:29 1.2 0.5 95 281 1.1 2.5 1020.3 0.0000 1.7000
20:39 1.1 0.4 95 270 1.1 2.2 1020.2 0.0000 1.7000
20:49 1 0.3 95 246 0.8 2.2 1020.1 0.0000 1.7000
20:59 1 0.3 95 248 1.1 3.1 1020.2 0.0000 1.7000
21:09 1 0.3 95 270 1.1 2.8 1020.2 0.0000 1.7000
21:19 0.9 0.2 95 281 1.1 2.2 1020.3 0.0000 1.7000
21:29 0.9 0.3 96 270 0.8 1.9 1020.3 0.0000 1.7000
21:40 0.9 0.3 96 285 0.8 1.7 1020.6 0.0000 1.7000
21:49 0.9 0.3 96 289 1.1 3.1 1020.5 0.0000 1.7000
21:59 0.9 0.3 96 284 1.1 2.8 1020.6 0.0000 1.7000
22:10 0.9 0.3 96 292 1.4 2.8 1020.5 0.0000 1.7000
22:20 0.9 0.2 95 293 1.7 3.9 1020.5 0.0000 1.7000
22:30 0.9 0.2 95 287 1.7 4.7 1020.3 0.0000 1.7000
22:40 0.9 0.2 95 289 0.8 1.9 1020.3 0.0000 1.7000
22:50 0.9 0 94 296 1.4 3.6 1020.2 0.0000 1.7000
23:00 0.9 0 94 293 1.4 3.3 1020.2 0.0000 1.7000
23:10 0.9 0 94 284 1.1 3.3 1020.2 0.0000 1.7000
23:21 0.8 -0.2 93 310 1.4 3.6 1020.3 0.0000 1.7000
23:31 0.8 -0.2 93 298 1.1 2.8 1020.5 0.0000 1.7000
23:40 0.8 -0.2 93 270 1.1 2.5 1020.3 0.0000 1.7000
23:50 0.8 -0.2 93 280 1.4 3.3 1020.2 0.0000 1.7000

DAY STATISTIC

2022-01-26
TEMPERATURE
AVERAGE
1.2
HIGH
1.8
12:01
LOW
0.8
03:27
PRESSURE
AVERAGE
1021.8
HIGH
1023.9
00:05
LOW
1020.1
20:49
DEWPOINT
AVERAGE
0.6
HIGH
1.2
12:01
LOW
-0.2
23:21
HUMIDITY
AVERAGE
96
HIGH
97
03:46
LOW
93
23:21
WIND SPEED
AVERAGE
1.4
HIGH
1.9
00:25
WIND GUST
AVERAGE
3.4
HIGH
5.3
11:21
WIND DIRECTION
PREVAILING
NW
53.5%
N
0.0
NE
0.0
E
0.0
SE
0.0
S
0.0
SW
0.7
W
45.8
NW
53.5
PRECIPITATION
RAIN HOUR
0.5
RAIN DAY
1.7
TEMPERATURE (°C)
LOW
0.8
HIGH
1.8
AVERAGE
1.2
PRESSURE (hpa)
LOW
1020.1
HIGH
1023.9
AVERAGE
1021.8
DEVICE